Terminal Aerodrome Forecast
Issued by NWS Northern Indiana

Home | Current Version | Previous Version | Text Only | Print | Product List | Glossary On
Versions: 1 2 3 4 5 6 7 8 9 10 11 12 13 14 15
000
FTUS43 KIWX 011100
TAFFWA
TAF
KFWA 011120Z 0112/0212 08003KT P6SM BKN015
      TEMPO 0112/0113 5SM BR
     FM011400 09005KT P6SM BKN025
     FM011600 11006KT P6SM FEW030 SCT250=

USA.gov is the U.S. government's official web portal to all federal, state and local government web resources and services.